createdAt,value
2023-02-02T15:45:48.468Z,14.10
2023-02-02T15:46:48.489Z,13.90
2023-02-02T15:47:48.376Z,11.80
2023-02-02T15:48:48.361Z,15.10
2023-02-02T15:49:48.322Z,17.00
2023-02-02T15:50:48.339Z,15.00
2023-02-02T15:51:48.333Z,16.90
2023-02-02T15:52:48.293Z,18.90
2023-02-02T15:53:48.227Z,14.60
2023-02-02T15:54:48.194Z,19.30
2023-02-02T15:55:48.166Z,13.90
2023-02-02T15:56:48.139Z,12.60
2023-02-02T15:57:48.104Z,16.40
2023-02-02T15:58:48.079Z,12.30
2023-02-02T15:59:48.056Z,16.80
2023-02-02T16:00:48.080Z,15.00
2023-02-02T16:01:48.092Z,14.20
2023-02-02T16:02:47.986Z,11.00
2023-02-02T16:03:47.998Z,13.60
2023-02-02T16:04:47.939Z,14.90
2023-02-02T16:05:47.973Z,14.00
2023-02-02T16:06:47.902Z,15.30
2023-02-02T16:07:59.713Z,12.60
2023-02-02T16:08:47.871Z,16.60
2023-02-02T16:09:47.817Z,10.70
2023-02-02T16:10:47.760Z,15.80
2023-02-02T16:11:47.915Z,14.30
2023-02-02T16:12:47.751Z,15.30
2023-02-02T16:13:47.727Z,13.10
2023-02-02T16:14:47.648Z,16.60
2023-02-02T16:15:47.617Z,18.30
2023-02-02T16:16:47.755Z,13.50
2023-02-02T16:17:47.645Z,16.10
2023-02-02T16:18:47.518Z,14.80
2023-02-02T16:19:47.489Z,14.50
2023-02-02T16:20:47.479Z,18.80
2023-02-02T16:21:47.451Z,16.40
2023-02-02T16:22:47.409Z,15.60
2023-02-02T16:23:47.385Z,13.20
2023-02-02T16:24:47.364Z,18.00
2023-02-02T16:25:47.322Z,14.80
2023-02-02T16:26:47.335Z,21.90
2023-02-02T16:27:47.263Z,17.20
2023-02-02T16:28:47.238Z,16.80
2023-02-02T16:29:47.209Z,17.70
2023-02-02T16:30:47.229Z,16.70
2023-02-02T16:31:47.229Z,15.20
2023-02-02T16:32:47.127Z,20.30
2023-02-02T16:33:47.130Z,15.40
2023-02-02T16:34:47.375Z,20.00
2023-02-02T16:35:47.047Z,17.80
2023-02-02T16:36:47.016Z,16.40
2023-02-02T16:37:46.988Z,19.00
2023-02-02T16:38:46.959Z,18.20
2023-02-02T16:39:46.999Z,21.70
2023-02-02T16:40:46.906Z,17.90
2023-02-02T16:41:46.909Z,18.20
2023-02-02T16:42:46.861Z,16.40
2023-02-02T16:43:46.826Z,16.90
2023-02-02T16:44:46.795Z,16.20
2023-02-02T16:45:46.809Z,19.40
2023-02-02T16:46:46.766Z,17.70
2023-02-02T16:47:46.812Z,20.50
2023-02-02T16:48:46.689Z,24.40
2023-02-02T16:49:46.694Z,19.20
2023-02-02T16:50:46.627Z,19.40
2023-02-02T16:51:46.602Z,18.40
2023-02-02T16:52:46.571Z,20.80
2023-02-02T16:53:46.548Z,20.80
2023-02-02T16:54:46.529Z,21.70
2023-02-02T16:55:50.939Z,23.50
2023-02-02T16:56:46.467Z,19.50
2023-02-02T16:57:46.434Z,21.90
2023-02-02T16:58:46.560Z,23.30
2023-02-02T16:59:46.391Z,21.40
2023-02-02T17:00:46.372Z,22.50
2023-02-02T17:01:46.446Z,24.00
2023-02-02T17:02:46.362Z,23.30
2023-02-02T17:03:46.271Z,25.90
2023-02-02T17:04:46.239Z,22.00
2023-02-02T17:05:46.239Z,21.40
2023-02-02T17:06:52.902Z,25.40
2023-02-02T17:07:46.159Z,26.40
2023-02-02T17:08:46.129Z,27.80
2023-02-02T17:09:46.106Z,21.30
2023-02-02T17:10:46.076Z,20.90
2023-02-02T17:11:46.050Z,24.80
2023-02-02T17:12:46.027Z,20.50
2023-02-02T17:13:45.995Z,21.00
2023-02-02T17:14:45.962Z,23.00
2023-02-02T17:15:45.938Z,26.00
2023-02-02T17:16:45.986Z,24.80
2023-02-02T17:17:45.883Z,24.20
2023-02-02T17:18:45.881Z,26.20
2023-02-02T17:19:45.831Z,23.90
2023-02-02T17:20:45.797Z,25.50
2023-02-02T17:21:45.790Z,29.60
2023-02-02T17:22:45.751Z,26.00
2023-02-02T17:23:45.715Z,22.60
2023-02-02T17:24:45.749Z,26.90
2023-02-02T17:25:45.669Z,27.40
2023-02-02T17:26:45.687Z,29.90
2023-02-02T17:27:45.611Z,24.90
2023-02-02T17:28:45.578Z,31.50
2023-02-02T17:29:45.559Z,28.40
2023-02-02T17:30:45.713Z,31.60
2023-02-02T17:31:45.695Z,30.60
2023-02-02T17:32:45.495Z,32.20
2023-02-02T17:33:45.437Z,28.20
2023-02-02T17:34:45.413Z,31.30
2023-02-02T17:35:54.476Z,29.60
2023-02-02T17:36:45.353Z,26.20
2023-02-02T17:37:45.347Z,27.90
2023-02-02T17:38:45.301Z,30.80
2023-02-02T17:39:45.293Z,39.30
2023-02-02T17:40:45.243Z,29.00
2023-02-02T17:41:45.230Z,31.60
2023-02-02T17:42:45.190Z,34.20
2023-02-02T17:43:45.166Z,33.70
2023-02-02T17:44:45.141Z,33.10
2023-02-02T17:45:45.247Z,31.20
2023-02-02T17:46:45.085Z,30.40
2023-02-02T17:47:45.070Z,35.20
2023-02-02T17:48:45.027Z,33.60
2023-02-02T17:49:45.093Z,30.30
2023-02-02T17:50:45.024Z,32.00
2023-02-02T17:51:45.149Z,27.10
2023-02-02T17:52:45.005Z,31.20
2023-02-02T17:53:44.929Z,28.80
2023-02-02T17:54:44.861Z,32.70
2023-02-02T17:55:44.833Z,29.60
2023-02-02T17:56:44.800Z,29.00
2023-02-02T17:57:47.151Z,37.70
2023-02-02T17:58:44.748Z,36.70
2023-02-02T17:59:44.719Z,31.80
2023-02-02T18:00:44.693Z,27.30
2023-02-02T18:01:44.720Z,27.90
2023-02-02T18:02:44.687Z,28.40
2023-02-02T18:03:44.612Z,30.20
2023-02-02T18:04:45.753Z,30.30
2023-02-02T18:05:44.557Z,25.60
2023-02-02T18:06:44.526Z,28.20
2023-02-02T18:07:44.505Z,31.00
2023-02-02T18:08:44.471Z,27.70
2023-02-02T18:09:44.472Z,27.90
2023-02-02T18:10:44.418Z,26.50
2023-02-02T18:11:44.397Z,26.90
2023-02-02T18:12:44.366Z,28.20
2023-02-02T18:13:44.337Z,26.20
2023-02-02T18:14:44.324Z,28.00
2023-02-02T18:15:44.359Z,29.40
2023-02-02T18:16:44.254Z,25.10
2023-02-02T18:17:44.228Z,27.50
2023-02-02T18:18:44.199Z,26.30
2023-02-02T18:19:44.168Z,28.20
2023-02-02T18:20:44.139Z,26.40
2023-02-02T18:21:44.120Z,24.50
2023-02-02T18:22:44.101Z,23.10
2023-02-02T18:23:44.060Z,24.30
2023-02-02T18:24:44.030Z,24.30
2023-02-02T18:25:44.024Z,26.80
2023-02-02T18:26:44.001Z,25.20
2023-02-02T18:27:43.958Z,26.20
2023-02-02T18:28:43.919Z,27.30
2023-02-02T18:29:43.895Z,21.60
2023-02-02T18:30:43.987Z,20.10
2023-02-02T18:31:43.956Z,22.30
2023-02-02T18:32:43.897Z,19.50
2023-02-02T18:33:43.785Z,22.20
2023-02-02T18:34:43.753Z,19.50
2023-02-02T18:35:43.736Z,20.40
2023-02-02T18:36:43.697Z,22.00
2023-02-02T18:37:43.673Z,21.20
2023-02-02T18:38:43.645Z,21.00
2023-02-02T18:39:43.700Z,18.70
2023-02-02T18:40:43.644Z,18.80
2023-02-02T18:41:43.599Z,20.00
2023-02-02T18:42:43.532Z,23.70
2023-02-02T18:43:43.509Z,22.50
2023-02-02T18:44:43.478Z,21.80
2023-02-02T18:45:43.451Z,19.10
2023-02-02T18:46:43.490Z,25.80
2023-02-02T18:47:43.407Z,27.20
2023-02-02T18:48:43.378Z,24.00
2023-02-02T18:49:43.339Z,24.40
2023-02-02T18:50:43.313Z,24.00
2023-02-02T18:51:43.284Z,24.60
2023-02-02T18:52:43.258Z,26.60
2023-02-02T18:53:43.241Z,26.70
2023-02-02T18:54:43.371Z,34.90
2023-02-02T18:55:43.179Z,30.60
2023-02-02T18:56:43.156Z,31.40
2023-02-02T18:57:43.143Z,34.30
2023-02-02T18:58:43.099Z,36.90
2023-02-02T18:59:43.063Z,37.40
2023-02-02T19:00:43.031Z,38.80
2023-02-02T19:01:43.035Z,34.30
2023-02-02T19:02:42.977Z,32.90
2023-02-02T19:03:42.964Z,37.60
2023-02-02T19:04:42.922Z,34.30
2023-02-02T19:05:42.899Z,37.10
2023-02-02T19:06:42.868Z,39.30
2023-02-02T19:07:42.839Z,35.80
2023-02-02T19:08:42.828Z,41.40
2023-02-02T19:09:42.789Z,44.70
2023-02-02T19:10:42.761Z,40.60
2023-02-02T19:11:42.731Z,42.60
2023-02-02T19:12:42.702Z,41.80
2023-02-02T19:13:42.694Z,42.10
2023-02-02T19:14:42.648Z,40.90
2023-02-02T19:15:42.764Z,40.60
2023-02-02T19:16:42.593Z,44.80
2023-02-02T19:17:42.579Z,42.80
2023-02-02T19:18:42.537Z,44.50
2023-02-02T19:19:42.511Z,41.00
2023-02-02T19:20:42.486Z,43.90
2023-02-02T19:21:42.481Z,45.30
2023-02-02T19:22:42.430Z,44.20
2023-02-02T19:23:42.401Z,42.30
2023-02-02T19:24:42.376Z,40.00
2023-02-02T19:25:42.349Z,45.30
2023-02-02T19:26:42.372Z,47.20
2023-02-02T19:27:42.292Z,45.70
2023-02-02T19:28:42.262Z,52.10
2023-02-02T19:29:42.264Z,44.30
2023-02-02T19:30:42.259Z,49.40
2023-02-02T19:31:42.291Z,43.60
2023-02-02T19:32:42.150Z,48.40
2023-02-02T19:33:42.141Z,48.50
2023-02-02T19:34:42.100Z,44.80
2023-02-02T19:35:42.073Z,48.20
2023-02-02T19:36:42.044Z,47.20
2023-02-02T19:37:42.011Z,44.30
2023-02-02T19:38:42.016Z,46.80
2023-02-02T19:39:41.971Z,47.30
2023-02-02T19:40:41.936Z,48.80
2023-02-02T19:41:41.922Z,50.80
2023-02-02T19:42:41.874Z,48.50
2023-02-02T19:43:41.850Z,55.60
2023-02-02T19:44:41.824Z,54.90
2023-02-02T19:45:41.814Z,50.30
2023-02-02T19:46:41.810Z,45.40
2023-02-02T19:47:41.739Z,48.40
2023-02-02T19:48:41.709Z,51.50
2023-02-02T19:49:41.693Z,54.30
2023-02-02T19:50:41.663Z,49.10
2023-02-02T19:51:41.629Z,54.30
2023-02-02T19:52:41.604Z,54.00
2023-02-02T19:53:41.577Z,50.50
2023-02-02T19:54:41.576Z,56.90
2023-02-02T19:55:41.517Z,54.30
2023-02-02T19:56:41.491Z,55.50
2023-02-02T19:57:41.463Z,52.90
2023-02-02T19:58:41.449Z,51.80
2023-02-02T19:59:41.424Z,57.60
2023-02-02T20:00:41.474Z,53.90
2023-02-02T20:01:41.385Z,52.10
2023-02-02T20:02:41.386Z,57.00
2023-02-02T20:03:41.297Z,57.50
2023-02-02T20:04:41.269Z,58.00
2023-02-02T20:05:41.244Z,58.00
2023-02-02T20:06:56.677Z,54.60
2023-02-02T20:07:41.188Z,56.00
2023-02-02T20:08:41.161Z,50.90
2023-02-02T20:09:41.137Z,58.20
2023-02-02T20:10:41.129Z,58.00
2023-02-02T20:11:41.080Z,52.10
2023-02-02T20:12:41.077Z,54.20
2023-02-02T20:13:41.024Z,55.30
2023-02-02T20:14:40.997Z,52.10
2023-02-02T20:15:40.970Z,56.10
2023-02-02T20:16:41.035Z,50.00
2023-02-02T20:17:40.928Z,50.00
2023-02-02T20:18:40.886Z,53.00
2023-02-02T20:19:40.858Z,55.70
2023-02-02T20:20:40.835Z,51.70
2023-02-02T20:21:40.806Z,55.60
2023-02-02T20:22:40.777Z,56.90
2023-02-02T20:23:40.775Z,57.50
2023-02-02T20:24:40.728Z,55.00
2023-02-02T20:25:40.691Z,50.50
2023-02-02T20:26:40.688Z,51.30
2023-02-02T20:27:40.637Z,52.70
2023-02-02T20:28:40.613Z,52.10
2023-02-02T20:29:40.587Z,51.50
2023-02-02T20:30:40.606Z,49.00
2023-02-02T20:31:40.547Z,57.20
2023-02-02T20:32:40.502Z,54.40
2023-02-02T20:33:40.489Z,54.50
2023-02-02T20:34:40.446Z,52.20
2023-02-02T20:35:40.424Z,50.40
2023-02-02T20:36:40.394Z,49.90
2023-02-02T20:37:40.362Z,53.20
2023-02-02T20:38:40.339Z,60.10
2023-02-02T20:39:40.308Z,57.00
2023-02-02T20:40:40.282Z,51.10
2023-02-02T20:41:40.250Z,55.60
2023-02-02T20:42:40.237Z,53.80
2023-02-02T20:43:40.199Z,51.20
2023-02-02T20:44:40.181Z,53.60
2023-02-02T20:45:40.206Z,47.70
2023-02-02T20:46:40.115Z,49.50
2023-02-02T20:47:40.090Z,49.40
2023-02-02T20:48:40.060Z,56.80
2023-02-02T20:49:40.078Z,46.30
2023-02-02T20:50:40.006Z,44.40
2023-02-02T20:51:39.975Z,55.10
2023-02-02T20:52:39.973Z,45.00
2023-02-02T20:53:39.923Z,51.20
2023-02-02T20:54:39.934Z,47.70
2023-02-02T20:55:39.869Z,42.70
2023-02-02T20:56:39.840Z,45.90
2023-02-02T20:57:39.816Z,45.80
2023-02-02T20:58:39.792Z,49.20
2023-02-02T20:59:39.759Z,53.90
2023-02-02T21:00:39.734Z,44.90
2023-02-02T21:01:39.701Z,49.00
2023-02-02T21:02:39.745Z,42.10
2023-02-02T21:03:39.648Z,47.90
2023-02-02T21:04:39.635Z,48.80
2023-02-02T21:05:39.610Z,46.30
2023-02-02T21:06:39.565Z,45.30
2023-02-02T21:07:39.536Z,45.60
2023-02-02T21:08:39.511Z,48.80
2023-02-02T21:09:39.495Z,46.90
2023-02-02T21:10:39.455Z,45.90
2023-02-02T21:11:39.436Z,41.10
2023-02-02T21:12:39.400Z,51.90
2023-02-02T21:13:39.372Z,47.70
2023-02-02T21:14:39.346Z,41.60
2023-02-02T21:15:39.316Z,46.30
2023-02-02T21:16:39.329Z,41.10
2023-02-02T21:17:39.263Z,46.70
2023-02-02T21:18:39.237Z,44.60
2023-02-02T21:19:39.205Z,45.50
2023-02-02T21:20:39.181Z,46.20
2023-02-02T21:21:39.243Z,44.60
2023-02-02T21:22:39.135Z,38.60
2023-02-02T21:23:39.103Z,39.60
2023-02-02T21:24:39.071Z,40.80
2023-02-02T21:25:39.048Z,41.90
2023-02-02T21:26:39.272Z,42.10
2023-02-02T21:27:38.986Z,36.40
2023-02-02T21:28:38.965Z,38.70
2023-02-02T21:29:38.959Z,45.00
2023-02-02T21:30:39.022Z,38.40
2023-02-02T21:31:39.005Z,43.00
2023-02-02T21:32:38.854Z,42.00
2023-02-02T21:33:38.826Z,42.60
2023-02-02T21:34:38.799Z,43.20
2023-02-02T21:35:38.765Z,42.40
2023-02-02T21:36:38.740Z,39.80
2023-02-02T21:37:38.730Z,38.00
2023-02-02T21:38:38.685Z,35.20
2023-02-02T21:39:38.677Z,40.40
2023-02-02T21:40:38.666Z,39.60
2023-02-02T21:41:38.604Z,33.40
2023-02-02T21:42:38.577Z,39.80
2023-02-02T21:43:38.548Z,37.10
2023-02-02T21:44:38.574Z,38.40
2023-02-02T21:45:38.679Z,41.10
2023-02-02T21:46:38.568Z,33.10
2023-02-02T21:47:38.435Z,36.70
2023-02-02T21:48:38.409Z,35.20
2023-02-02T21:49:38.383Z,36.60
2023-02-02T21:50:38.356Z,40.20
2023-02-02T21:51:38.329Z,42.30
2023-02-02T21:52:38.301Z,39.50
2023-02-02T21:53:38.291Z,41.50
2023-02-02T21:54:38.275Z,38.30
2023-02-02T21:55:38.215Z,41.50
2023-02-02T21:56:38.198Z,33.80
2023-02-02T21:57:38.165Z,39.50
2023-02-02T21:58:38.142Z,35.50
2023-02-02T21:59:38.106Z,39.10
2023-02-02T22:00:38.125Z,37.80
2023-02-02T22:01:38.111Z,32.70
2023-02-02T22:02:38.140Z,38.20
2023-02-02T22:03:38.034Z,36.00
2023-02-02T22:04:37.968Z,37.20
2023-02-02T22:05:37.950Z,32.00
2023-02-02T22:06:37.924Z,35.20
2023-02-02T22:07:37.889Z,35.70
2023-02-02T22:08:37.859Z,30.50
2023-02-02T22:09:37.863Z,33.10
2023-02-02T22:10:37.808Z,38.00
2023-02-02T22:11:37.776Z,31.60
2023-02-02T22:12:37.752Z,37.40
2023-02-02T22:13:37.732Z,37.40
2023-02-02T22:14:37.736Z,31.10
2023-02-02T22:15:39.015Z,29.70
2023-02-02T22:16:37.641Z,33.10
2023-02-02T22:17:37.616Z,40.10
2023-02-02T22:18:37.589Z,33.30
2023-02-02T22:19:37.558Z,32.20
2023-02-02T22:20:37.538Z,28.70
2023-02-02T22:21:37.510Z,28.30
2023-02-02T22:22:37.476Z,29.20
2023-02-02T22:23:37.447Z,31.20
2023-02-02T22:24:37.421Z,35.80
2023-02-02T22:25:37.413Z,31.30
2023-02-02T22:26:37.366Z,33.20
2023-02-02T22:27:37.375Z,29.70
2023-02-02T22:28:37.312Z,31.50
2023-02-02T22:29:37.282Z,33.40
2023-02-02T22:30:37.277Z,31.00
2023-02-02T22:31:37.350Z,30.50
2023-02-02T22:32:37.205Z,29.10
2023-02-02T22:33:37.175Z,35.90
2023-02-02T22:34:37.151Z,27.20
2023-02-02T22:35:37.121Z,31.40
2023-02-02T22:36:37.093Z,26.00
2023-02-02T22:37:37.068Z,27.70
2023-02-02T22:38:37.039Z,27.70
2023-02-02T22:39:37.010Z,28.90
2023-02-02T22:40:36.984Z,26.80
2023-02-02T22:41:36.974Z,24.60
2023-02-02T22:42:36.929Z,26.80
2023-02-02T22:43:36.902Z,27.10
2023-02-02T22:44:36.879Z,26.00
2023-02-02T22:45:36.851Z,30.30
2023-02-02T22:46:36.874Z,26.00
2023-02-02T22:47:36.794Z,23.00
2023-02-02T22:48:36.812Z,30.50
2023-02-02T22:49:36.737Z,26.70
2023-02-02T22:50:36.712Z,24.90
2023-02-02T22:51:36.679Z,25.10
2023-02-02T22:52:36.664Z,25.00
2023-02-02T22:53:36.634Z,22.50
2023-02-02T22:54:36.610Z,23.90
2023-02-02T22:55:36.570Z,24.80
2023-02-02T22:56:36.550Z,22.80
2023-02-02T22:57:36.536Z,22.50
2023-02-02T22:58:36.492Z,27.20
2023-02-02T22:59:36.462Z,23.30
2023-02-02T23:00:36.438Z,26.30
2023-02-02T23:01:36.405Z,25.00
2023-02-02T23:02:36.416Z,24.30
2023-02-02T23:03:36.457Z,24.60
2023-02-02T23:04:36.328Z,25.00
2023-02-02T23:05:36.301Z,29.50
2023-02-02T23:06:36.269Z,27.40
2023-02-02T23:07:36.242Z,28.60
2023-02-02T23:08:36.223Z,27.80
2023-02-02T23:09:36.189Z,24.60
2023-02-02T23:10:36.160Z,24.70
2023-02-02T23:11:36.133Z,25.40
2023-02-02T23:12:36.113Z,27.30
2023-02-02T23:13:36.094Z,27.10
2023-02-02T23:14:36.051Z,25.00
2023-02-02T23:15:36.033Z,24.90
2023-02-02T23:16:35.998Z,21.10
2023-02-02T23:17:35.972Z,24.80
2023-02-02T23:18:35.950Z,28.00
2023-02-02T23:19:35.916Z,23.30
2023-02-02T23:20:35.888Z,27.10
2023-02-02T23:21:35.861Z,26.20
2023-02-02T23:22:35.833Z,27.10
2023-02-02T23:23:35.802Z,29.20
2023-02-02T23:24:35.782Z,24.90
2023-02-02T23:25:35.752Z,26.20
2023-02-02T23:26:35.726Z,29.30
2023-02-02T23:27:35.698Z,26.50
2023-02-02T23:28:35.695Z,26.70
2023-02-02T23:29:35.673Z,25.80
2023-02-02T23:30:35.645Z,21.30
2023-02-02T23:31:35.665Z,26.10
2023-02-02T23:32:35.593Z,25.10
2023-02-02T23:33:35.543Z,25.50
2023-02-02T23:34:35.521Z,25.70
2023-02-02T23:35:35.488Z,25.60
2023-02-02T23:36:35.453Z,25.90
2023-02-02T23:37:35.429Z,23.30
2023-02-02T23:38:35.399Z,20.50
2023-02-02T23:39:35.368Z,24.00
2023-02-02T23:40:35.343Z,27.30
2023-02-02T23:41:35.319Z,24.00
2023-02-02T23:42:35.295Z,23.70
2023-02-02T23:43:35.264Z,25.00
2023-02-02T23:44:35.237Z,22.30
2023-02-02T23:45:35.223Z,26.40
2023-02-02T23:46:35.233Z,22.40
2023-02-02T23:47:35.188Z,23.80
2023-02-02T23:48:35.127Z,23.60
2023-02-02T23:49:35.117Z,23.70
2023-02-02T23:50:35.072Z,26.00
2023-02-02T23:51:35.046Z,24.90
2023-02-02T23:52:35.016Z,20.80
2023-02-02T23:53:34.986Z,22.10
2023-02-02T23:54:34.969Z,25.30
2023-02-02T23:55:34.935Z,20.90
2023-02-02T23:56:34.911Z,20.20
2023-02-02T23:57:34.878Z,23.30
2023-02-02T23:58:34.854Z,21.00
2023-02-02T23:59:34.833Z,23.80
